Hlavní strana
METAR-TAF:

METAR-TAF

Letiště :

Sedalia, Missouri, Spojené státy americké

zeměpisná šířka: 38-42-44N, zeměpisná délka: 093-10-28W, výška: 277 m

Aktuální stav počasí

Zpráva byla vytvořena před 27 minutami, v 10:12 UTC
Severozápadní vítr 8 kt
Teplota 0°C
Vlhkost vzduchu 100%
Tlak 1011 hPa
Viditelnost: 2.0 km
Zataženo ve výšce 600 ft
slabé sněžení, kouřmo

METAR: KDMO 241012Z AUTO 32008KT 1 1/4SM -SN BR OVC006 00/00 A2984 RMK AO2 P0001 T00000000

Čas: 04:39 (10:39 UTC)


TAF: chybějící

Stav a předpovědi počasí z více než 4 000 letišť (zprávy METAR a TAF).

Červené a žluté tečky na mapě představují dostupné meteorologické stanice.

Když kurzor umístíte na tečku, zobrazí se název stanice.

Pak kliknutím zobrazíte stav a předpověď počasí.

Chcete-li změnit mapu, kliknutím na zelené tlačítko se znaménkem +mapu přiblížíte, kliknutím na zelené tlačítko se znaménkem – mapu oddálíte a kliknutím na zelené šipky přejdete na sousední mapy.


METAR-TAF: